sensor_id;sensor_type;location;lat;lon;timestamp;pressure;altitude;pressure_sealevel;temperature;humidity
11017;BME280;54687;50.800;6.772;2024-02-15T00:02:07;99023.97;;;-144.06;64.47
11017;BME280;54687;50.800;6.772;2024-02-15T00:04:34;98994.31;;;-144.06;64.53
11017;BME280;54687;50.800;6.772;2024-02-15T00:07:01;99055.78;;;-144.06;64.51
11017;BME280;54687;50.800;6.772;2024-02-15T00:09:27;99049.41;;;-144.06;64.46
11017;BME280;54687;50.800;6.772;2024-02-15T00:11:54;99026.09;;;-144.06;64.43
11017;BME280;54687;50.800;6.772;2024-02-15T00:14:21;99000.66;;;-144.06;64.38
11017;BME280;54687;50.800;6.772;2024-02-15T00:16:47;99026.09;;;-144.06;64.43
11017;BME280;54687;50.800;6.772;2024-02-15T00:19:15;99009.16;;;-144.06;64.43
11017;BME280;54687;50.800;6.772;2024-02-15T00:21:43;99017.63;;;-144.06;64.45
11017;BME280;54687;50.800;6.772;2024-02-15T00:24:09;99002.78;;;-144.06;64.35
11017;BME280;54687;50.800;6.772;2024-02-15T00:26:36;99026.09;;;-144.06;64.33
11017;BME280;54687;50.800;6.772;2024-02-15T00:29:03;99034.59;;;-144.06;64.33
11017;BME280;54687;50.800;6.772;2024-02-15T00:31:30;99004.91;;;-144.06;64.43
11017;BME280;54687;50.800;6.772;2024-02-15T00:33:56;99051.53;;;-144.06;64.36
11017;BME280;54687;50.800;6.772;2024-02-15T00:36:25;99038.81;;;-144.06;64.40
11017;BME280;54687;50.800;6.772;2024-02-15T00:38:51;99009.16;;;-144.06;64.36
11017;BME280;54687;50.800;6.772;2024-02-15T00:41:18;98987.94;;;-144.06;64.33
11017;BME280;54687;50.800;6.772;2024-02-15T00:43:47;99002.78;;;-144.06;64.43
11017;BME280;54687;50.800;6.772;2024-02-15T00:46:13;99030.34;;;-144.06;64.31
11017;BME280;54687;50.800;6.772;2024-02-15T00:48:40;99000.66;;;-144.06;64.51
11017;BME280;54687;50.800;6.772;2024-02-15T00:51:07;99004.91;;;-144.06;64.45
11017;BME280;54687;50.800;6.772;2024-02-15T00:53:35;99036.69;;;-144.06;64.55
11017;BME280;54687;50.800;6.772;2024-02-15T00:56:02;99021.88;;;-144.06;64.53
11017;BME280;54687;50.800;6.772;2024-02-15T00:58:30;99028.22;;;-144.06;64.64
11017;BME280;54687;50.800;6.772;2024-02-15T01:00:56;99036.69;;;-144.06;64.53
11017;BME280;54687;50.800;6.772;2024-02-15T01:03:23;99026.09;;;-144.06;64.65
11017;BME280;54687;50.800;6.772;2024-02-15T01:05:50;99043.06;;;-144.06;64.64
11017;BME280;54687;50.800;6.772;2024-02-15T01:08:17;99045.19;;;-144.06;64.60
11017;BME280;54687;50.800;6.772;2024-02-15T01:10:45;99032.47;;;-144.06;64.45
11017;BME280;54687;50.800;6.772;2024-02-15T01:13:11;99032.47;;;-144.06;64.43
11017;BME280;54687;50.800;6.772;2024-02-15T01:15:38;99034.59;;;-144.06;64.34
11017;BME280;54687;50.800;6.772;2024-02-15T01:18:07;99030.34;;;-144.06;64.39
11017;BME280;54687;50.800;6.772;2024-02-15T01:20:34;99017.63;;;-144.06;64.46
11017;BME280;54687;50.800;6.772;2024-02-15T01:23:03;99034.59;;;-144.06;64.53
11017;BME280;54687;50.800;6.772;2024-02-15T01:25:31;99034.59;;;-144.06;64.58
11017;BME280;54687;50.800;6.772;2024-02-15T01:27:59;99051.53;;;-144.06;64.75
11017;BME280;54687;50.800;6.772;2024-02-15T01:30:27;99026.09;;;-144.06;64.72
11017;BME280;54687;50.800;6.772;2024-02-15T01:32:55;99038.81;;;-144.06;64.72
11017;BME280;54687;50.800;6.772;2024-02-15T01:35:22;99034.59;;;-144.06;64.73
11017;BME280;54687;50.800;6.772;2024-02-15T01:37:50;99040.94;;;-144.06;64.57
11017;BME280;54687;50.800;6.772;2024-02-15T01:40:18;99013.38;;;-144.06;64.74
11017;BME280;54687;50.800;6.772;2024-02-15T01:42:45;99043.06;;;-144.06;64.79
11017;BME280;54687;50.800;6.772;2024-02-15T01:45:14;98983.72;;;-144.06;64.55
11017;BME280;54687;50.800;6.772;2024-02-15T01:47:42;99028.22;;;-144.06;64.58
11017;BME280;54687;50.800;6.772;2024-02-15T01:50:11;99030.34;;;-144.06;64.85
11017;BME280;54687;50.800;6.772;2024-02-15T01:52:39;99049.41;;;-144.06;64.98
11017;BME280;54687;50.800;6.772;2024-02-15T01:55:08;99026.09;;;-144.06;64.99
11017;BME280;54687;50.800;6.772;2024-02-15T01:57:36;99026.09;;;-144.06;65.08
11017;BME280;54687;50.800;6.772;2024-02-15T02:00:04;99043.06;;;-144.06;65.16
11017;BME280;54687;50.800;6.772;2024-02-15T02:02:34;98992.19;;;-144.06;65.19
11017;BME280;54687;50.800;6.772;2024-02-15T02:05:02;99007.03;;;-144.06;65.17
11017;BME280;54687;50.800;6.772;2024-02-15T02:07:30;99045.19;;;-144.06;65.14
11017;BME280;54687;50.800;6.772;2024-02-15T02:09:56;99036.69;;;-144.06;65.17
11017;BME280;54687;50.800;6.772;2024-02-15T02:12:24;98937.09;;;-144.06;65.16
11017;BME280;54687;50.800;6.772;2024-02-15T02:14:53;99000.66;;;-144.06;65.14
11017;BME280;54687;50.800;6.772;2024-02-15T02:17:20;99043.06;;;-144.06;65.13
11017;BME280;54687;50.800;6.772;2024-02-15T02:19:48;99028.22;;;-144.06;65.04
11017;BME280;54687;50.800;6.772;2024-02-15T02:22:17;99009.16;;;-144.06;64.94
11017;BME280;54687;50.800;6.772;2024-02-15T02:24:57;99021.88;;;-144.06;64.74
11017;BME280;54687;50.800;6.772;2024-02-15T02:27:24;99043.06;;;-144.06;64.70
11017;BME280;54687;50.800;6.772;2024-02-15T02:29:53;99043.06;;;-144.06;64.50
11017;BME280;54687;50.800;6.772;2024-02-15T02:32:20;99062.13;;;-144.06;64.76
11017;BME280;54687;50.800;6.772;2024-02-15T02:34:47;99060.00;;;-144.06;64.67
11017;BME280;54687;50.800;6.772;2024-02-15T02:37:14;99064.25;;;-144.06;64.70
11017;BME280;54687;50.800;6.772;2024-02-15T02:39:41;99085.44;;;-144.06;64.77
11017;BME280;54687;50.800;6.772;2024-02-15T02:42:09;99060.00;;;-144.06;64.75
11017;BME280;54687;50.800;6.772;2024-02-15T02:44:36;99079.09;;;-144.06;64.94
11017;BME280;54687;50.800;6.772;2024-02-15T02:47:02;99081.22;;;-144.06;65.10
11017;BME280;54687;50.800;6.772;2024-02-15T02:49:29;99060.00;;;-144.06;65.04
11017;BME280;54687;50.800;6.772;2024-02-15T02:51:56;99060.00;;;-144.06;65.14
11017;BME280;54687;50.800;6.772;2024-02-15T02:54:22;99110.88;;;-144.06;65.16
11017;BME280;54687;50.800;6.772;2024-02-15T02:56:49;99106.66;;;-144.06;65.22
11017;BME280;54687;50.800;6.772;2024-02-15T02:59:17;99045.19;;;-144.06;65.11
11017;BME280;54687;50.800;6.772;2024-02-15T03:01:44;99106.66;;;-144.06;65.16
11017;BME280;54687;50.800;6.772;2024-02-15T03:04:11;99119.34;;;-144.06;65.28
11017;BME280;54687;50.800;6.772;2024-02-15T03:06:37;99096.03;;;-144.06;65.23
11017;BME280;54687;50.800;6.772;2024-02-15T03:09:07;99085.44;;;-144.06;65.39
11017;BME280;54687;50.800;6.772;2024-02-15T03:11:35;99123.59;;;-144.06;65.50
11017;BME280;54687;50.800;6.772;2024-02-15T03:14:01;99161.75;;;-144.06;65.54
11017;BME280;54687;50.800;6.772;2024-02-15T03:16:30;99115.13;;;-144.06;65.82
11017;BME280;54687;50.800;6.772;2024-02-15T03:18:57;99123.59;;;-144.06;65.70
11017;BME280;54687;50.800;6.772;2024-02-15T03:21:26;99123.59;;;-144.06;65.74
11017;BME280;54687;50.800;6.772;2024-02-15T03:23:52;99102.41;;;-144.06;65.82
11017;BME280;54687;50.800;6.772;2024-02-15T03:26:28;99123.59;;;-144.06;65.88
11017;BME280;54687;50.800;6.772;2024-02-15T03:28:55;99132.06;;;-144.06;65.81
11017;BME280;54687;50.800;6.772;2024-02-15T03:31:22;99110.88;;;-144.06;65.90
11017;BME280;54687;50.800;6.772;2024-02-15T03:33:50;99123.59;;;-144.06;65.85
11017;BME280;54687;50.800;6.772;2024-02-15T03:36:16;99144.78;;;-144.06;65.87
11017;BME280;54687;50.800;6.772;2024-02-15T03:38:45;99127.84;;;-144.06;65.88
11017;BME280;54687;50.800;6.772;2024-02-15T03:41:12;99159.63;;;-144.06;65.92
11017;BME280;54687;50.800;6.772;2024-02-15T03:43:38;99102.41;;;-144.06;65.85
11017;BME280;54687;50.800;6.772;2024-02-15T03:46:05;99125.72;;;-144.06;65.85
11017;BME280;54687;50.800;6.772;2024-02-15T03:48:32;99085.44;;;-144.06;65.74
11017;BME280;54687;50.800;6.772;2024-02-15T03:51:00;99132.06;;;-144.06;65.88
11017;BME280;54687;50.800;6.772;2024-02-15T03:53:27;99318.59;;;-144.06;65.83
11017;BME280;54687;50.800;6.772;2024-02-15T03:55:55;99123.59;;;-144.06;65.87
11017;BME280;54687;50.800;6.772;2024-02-15T03:58:22;99102.41;;;-144.06;65.93
11017;BME280;54687;50.800;6.772;2024-02-15T04:00:48;99106.66;;;-144.06;65.78
11017;BME280;54687;50.800;6.772;2024-02-15T04:03:15;99098.16;;;-144.06;65.77
11017;BME280;54687;50.800;6.772;2024-02-15T04:05:42;99123.59;;;-144.06;65.78
11017;BME280;54687;50.800;6.772;2024-02-15T04:08:09;99098.16;;;-144.06;65.78
11017;BME280;54687;50.800;6.772;2024-02-15T04:10:36;99102.41;;;-144.06;65.74
11017;BME280;54687;50.800;6.772;2024-02-15T04:13:03;99123.59;;;-144.06;65.76
11017;BME280;54687;50.800;6.772;2024-02-15T04:15:29;99089.69;;;-144.06;65.70
11017;BME280;54687;50.800;6.772;2024-02-15T04:17:56;99123.59;;;-144.06;65.68
11017;BME280;54687;50.800;6.772;2024-02-15T04:20:23;99100.28;;;-144.06;65.56
11017;BME280;54687;50.800;6.772;2024-02-15T04:22:50;99115.13;;;-144.06;65.70
11017;BME280;54687;50.800;6.772;2024-02-15T04:25:18;99110.88;;;-144.06;65.66
11017;BME280;54687;50.800;6.772;2024-02-15T04:27:48;99115.13;;;-144.06;65.63
11017;BME280;54687;50.800;6.772;2024-02-15T04:30:15;99136.31;;;-144.06;65.67
11017;BME280;54687;50.800;6.772;2024-02-15T04:32:42;99113.00;;;-144.06;65.58
11017;BME280;54687;50.800;6.772;2024-02-15T04:35:09;99151.16;;;-144.06;65.60
11017;BME280;54687;50.800;6.772;2024-02-15T04:37:35;99132.06;;;-144.06;65.55
11017;BME280;54687;50.800;6.772;2024-02-15T04:40:03;99140.56;;;-144.06;65.60
11017;BME280;54687;50.800;6.772;2024-02-15T04:42:35;99144.78;;;-144.06;65.60
11017;BME280;54687;50.800;6.772;2024-02-15T04:45:06;99155.41;;;-144.06;65.60
11017;BME280;54687;50.800;6.772;2024-02-15T04:47:34;99140.56;;;-144.06;65.55
11017;BME280;54687;50.800;6.772;2024-02-15T04:50:00;99153.28;;;-144.06;65.55
11017;BME280;54687;50.800;6.772;2024-02-15T04:52:28;99125.72;;;-144.06;65.63
11017;BME280;54687;50.800;6.772;2024-02-15T04:54:55;99144.78;;;-144.06;65.79
11017;BME280;54687;50.800;6.772;2024-02-15T04:57:23;99132.06;;;-144.06;65.78
11017;BME280;54687;50.800;6.772;2024-02-15T04:59:53;99144.78;;;-144.06;65.72
11017;BME280;54687;50.800;6.772;2024-02-15T05:02:19;99151.16;;;-144.06;65.79
11017;BME280;54687;50.800;6.772;2024-02-15T05:04:47;99072.72;;;-144.06;65.82
11017;BME280;54687;50.800;6.772;2024-02-15T05:07:14;99149.03;;;-144.06;65.71
11017;BME280;54687;50.800;6.772;2024-02-15T05:09:42;99134.19;;;-144.06;65.83
11017;BME280;54687;50.800;6.772;2024-02-15T05:12:09;99163.88;;;-144.06;65.92
11017;BME280;54687;50.800;6.772;2024-02-15T05:14:36;99161.75;;;-144.06;65.91
11017;BME280;54687;50.800;6.772;2024-02-15T05:17:04;99144.78;;;-144.06;65.95
11017;BME280;54687;50.800;6.772;2024-02-15T05:19:35;99159.63;;;-144.06;65.90
11017;BME280;54687;50.800;6.772;2024-02-15T05:22:02;99140.56;;;-144.06;65.88
11017;BME280;54687;50.800;6.772;2024-02-15T05:24:30;99123.59;;;-144.06;65.90
11017;BME280;54687;50.800;6.772;2024-02-15T05:26:57;99134.19;;;-144.06;65.80
11017;BME280;54687;50.800;6.772;2024-02-15T05:29:24;99127.84;;;-144.06;65.80
11017;BME280;54687;50.800;6.772;2024-02-15T05:31:50;99136.31;;;-144.06;65.66
11017;BME280;54687;50.800;6.772;2024-02-15T05:34:18;99127.84;;;-144.06;65.66
11017;BME280;54687;50.800;6.772;2024-02-15T05:36:45;99144.78;;;-144.06;65.53
11017;BME280;54687;50.800;6.772;2024-02-15T05:39:13;99138.44;;;-144.06;65.63
11017;BME280;54687;50.800;6.772;2024-02-15T05:41:40;99149.03;;;-144.06;65.64
11017;BME280;54687;50.800;6.772;2024-02-15T05:44:06;99102.41;;;-144.06;65.63
11017;BME280;54687;50.800;6.772;2024-02-15T05:46:33;99140.56;;;-144.06;65.60
11017;BME280;54687;50.800;6.772;2024-02-15T05:49:02;99138.44;;;-144.06;65.60
11017;BME280;54687;50.800;6.772;2024-02-15T05:51:31;99081.22;;;-144.06;65.56
11017;BME280;54687;50.800;6.772;2024-02-15T05:53:59;99129.97;;;-144.06;65.48
11017;BME280;54687;50.800;6.772;2024-02-15T05:56:26;99134.19;;;-144.06;65.50
11017;BME280;54687;50.800;6.772;2024-02-15T05:58:54;99106.66;;;-144.06;65.44
11017;BME280;54687;50.800;6.772;2024-02-15T06:01:21;99104.53;;;-144.06;65.46
11017;BME280;54687;50.800;6.772;2024-02-15T06:03:49;99098.16;;;-144.06;65.46
11017;BME280;54687;50.800;6.772;2024-02-15T06:06:20;99096.03;;;-144.06;65.50
11017;BME280;54687;50.800;6.772;2024-02-15T06:08:48;99098.16;;;-144.06;65.43
11017;BME280;54687;50.800;6.772;2024-02-15T06:11:18;99089.69;;;-144.06;65.40
11017;BME280;54687;50.800;6.772;2024-02-15T06:13:45;99119.34;;;-144.06;65.49
11017;BME280;54687;50.800;6.772;2024-02-15T06:16:12;99127.84;;;-144.06;65.38
11017;BME280;54687;50.800;6.772;2024-02-15T06:18:38;99104.53;;;-144.06;65.30
11017;BME280;54687;50.800;6.772;2024-02-15T06:21:05;99100.28;;;-144.06;65.29
11017;BME280;54687;50.800;6.772;2024-02-15T06:23:31;99068.50;;;-144.06;65.36
11017;BME280;54687;50.800;6.772;2024-02-15T06:26:00;99085.44;;;-144.06;65.37
11017;BME280;54687;50.800;6.772;2024-02-15T06:28:28;99085.44;;;-144.06;65.27
11017;BME280;54687;50.800;6.772;2024-02-15T06:31:09;99115.13;;;-144.06;65.14
11017;BME280;54687;50.800;6.772;2024-02-15T06:33:54;99089.69;;;-144.06;65.22
11017;BME280;54687;50.800;6.772;2024-02-15T06:36:55;99380.06;;;-144.06;65.23
11017;BME280;54687;50.800;6.772;2024-02-15T06:39:39;99096.03;;;-144.06;65.27
11017;BME280;54687;50.800;6.772;2024-02-15T06:42:09;99032.47;;;-144.06;65.11
11017;BME280;54687;50.800;6.772;2024-02-15T06:44:36;99047.28;;;-144.06;64.94
11017;BME280;54687;50.800;6.772;2024-02-15T06:47:05;99089.69;;;-144.06;64.82
11017;BME280;54687;50.800;6.772;2024-02-15T06:49:34;99057.91;;;-144.06;64.82
11017;BME280;54687;50.800;6.772;2024-02-15T06:52:01;99076.97;;;-144.06;64.88
11017;BME280;54687;50.800;6.772;2024-02-15T06:54:28;99091.81;;;-144.06;64.70
11017;BME280;54687;50.800;6.772;2024-02-15T06:56:55;99081.22;;;-144.06;64.59
11017;BME280;54687;50.800;6.772;2024-02-15T06:59:23;99002.78;;;-144.06;64.57
11017;BME280;54687;50.800;6.772;2024-02-15T07:01:49;99045.19;;;-144.06;64.48
11017;BME280;54687;50.800;6.772;2024-02-15T07:04:17;99064.25;;;-144.06;64.49
11017;BME280;54687;50.800;6.772;2024-02-15T07:06:44;99053.66;;;-144.06;64.43
11017;BME280;54687;50.800;6.772;2024-02-15T07:09:13;99081.22;;;-144.06;64.33
11017;BME280;54687;50.800;6.772;2024-02-15T07:11:41;99038.81;;;-144.06;64.38
11017;BME280;54687;50.800;6.772;2024-02-15T07:14:09;99051.53;;;-144.06;64.37
11017;BME280;54687;50.800;6.772;2024-02-15T07:16:37;99049.41;;;-144.06;64.32
11017;BME280;54687;50.800;6.772;2024-02-15T07:19:03;99066.38;;;-144.06;64.09
11017;BME280;54687;50.800;6.772;2024-02-15T07:21:31;98977.34;;;-144.06;64.13
11017;BME280;54687;50.800;6.772;2024-02-15T07:23:57;99060.00;;;-144.06;64.05
11017;BME280;54687;50.800;6.772;2024-02-15T07:26:24;99068.50;;;-144.06;64.08
11017;BME280;54687;50.800;6.772;2024-02-15T07:28:51;98962.53;;;-144.06;64.24
11017;BME280;54687;50.800;6.772;2024-02-15T07:31:19;99089.69;;;-144.06;64.10
11017;BME280;54687;50.800;6.772;2024-02-15T07:33:48;99051.53;;;-144.06;63.96
11017;BME280;54687;50.800;6.772;2024-02-15T07:36:18;99049.41;;;-144.06;63.87
11017;BME280;54687;50.800;6.772;2024-02-15T07:38:46;99072.72;;;-144.06;63.85
11017;BME280;54687;50.800;6.772;2024-02-15T07:41:14;99034.59;;;-144.06;63.94
11017;BME280;54687;50.800;6.772;2024-02-15T07:43:40;99045.19;;;-144.06;63.89
11017;BME280;54687;50.800;6.772;2024-02-15T07:46:11;99004.91;;;-144.06;63.73
11017;BME280;54687;50.800;6.772;2024-02-15T07:48:38;99030.34;;;-144.06;63.82
11017;BME280;54687;50.800;6.772;2024-02-15T07:51:12;99034.59;;;-144.06;63.73
11017;BME280;54687;50.800;6.772;2024-02-15T07:53:39;99034.59;;;-144.06;63.79
11017;BME280;54687;50.800;6.772;2024-02-15T07:56:08;99030.34;;;-144.06;63.79
11017;BME280;54687;50.800;6.772;2024-02-15T07:58:38;99000.66;;;-144.06;63.77
11017;BME280;54687;50.800;6.772;2024-02-15T08:01:06;99021.88;;;-144.06;63.76
11017;BME280;54687;50.800;6.772;2024-02-15T08:03:33;99038.81;;;-144.06;63.91
11017;BME280;54687;50.800;6.772;2024-02-15T08:06:00;99045.19;;;-144.06;63.67
11017;BME280;54687;50.800;6.772;2024-02-15T08:08:28;99013.38;;;-144.06;63.88
11017;BME280;54687;50.800;6.772;2024-02-15T08:10:55;99007.03;;;-144.06;63.87
11017;BME280;54687;50.800;6.772;2024-02-15T08:13:21;99047.28;;;-144.06;63.82
11017;BME280;54687;50.800;6.772;2024-02-15T08:15:53;99030.34;;;-144.06;63.77
11017;BME280;54687;50.800;6.772;2024-02-15T08:18:20;98987.94;;;-144.06;63.69
11017;BME280;54687;50.800;6.772;2024-02-15T08:20:46;99026.09;;;-144.06;63.54
11017;BME280;54687;50.800;6.772;2024-02-15T08:23:13;98996.44;;;-144.06;63.55
11017;BME280;54687;50.800;6.772;2024-02-15T08:25:41;98998.53;;;-144.06;63.50
11017;BME280;54687;50.800;6.772;2024-02-15T08:28:07;99026.09;;;-144.06;63.37
11017;BME280;54687;50.800;6.772;2024-02-15T08:30:34;98994.31;;;-144.06;63.41
11017;BME280;54687;50.800;6.772;2024-02-15T08:33:03;98951.91;;;-144.06;63.28
11017;BME280;54687;50.800;6.772;2024-02-15T08:35:29;99032.47;;;-144.06;63.19
11017;BME280;54687;50.800;6.772;2024-02-15T08:37:57;98987.94;;;-144.06;63.12
11017;BME280;54687;50.800;6.772;2024-02-15T08:40:24;98850.19;;;-144.06;63.15
11017;BME280;54687;50.800;6.772;2024-02-15T08:42:53;98949.81;;;-144.06;62.98
11017;BME280;54687;50.800;6.772;2024-02-15T08:45:19;98983.72;;;-144.06;62.93
11017;BME280;54687;50.800;6.772;2024-02-15T08:47:46;98949.81;;;-144.06;62.82
11017;BME280;54687;50.800;6.772;2024-02-15T08:50:15;98998.53;;;-144.06;62.59
11017;BME280;54687;50.800;6.772;2024-02-15T08:52:42;98945.56;;;-144.06;62.39
11017;BME280;54687;50.800;6.772;2024-02-15T08:55:10;98928.59;;;-144.06;62.29
11017;BME280;54687;50.800;6.772;2024-02-15T08:57:40;98905.28;;;-144.06;62.17
11017;BME280;54687;50.800;6.772;2024-02-15T09:00:12;98915.88;;;-144.06;61.83
11017;BME280;54687;50.800;6.772;2024-02-15T09:02:42;98911.66;;;-144.06;61.66
11017;BME280;54687;50.800;6.772;2024-02-15T09:05:08;98890.47;;;-144.06;61.52
11017;BME280;54687;50.800;6.772;2024-02-15T09:07:35;98860.78;;;-144.06;61.08
11017;BME280;54687;50.800;6.772;2024-02-15T09:10:03;98873.50;;;-144.06;60.88
11017;BME280;54687;50.800;6.772;2024-02-15T09:12:29;98843.84;;;-144.06;60.69
11017;BME280;54687;50.800;6.772;2024-02-15T09:14:57;98833.22;;;-144.06;60.38
11017;BME280;54687;50.800;6.772;2024-02-15T09:17:25;98801.44;;;-144.06;59.88
11017;BME280;54687;50.800;6.772;2024-02-15T09:19:51;98809.91;;;-144.06;59.81
11017;BME280;54687;50.800;6.772;2024-02-15T09:22:19;98795.09;;;-144.06;59.45
11017;BME280;54687;50.800;6.772;2024-02-15T09:24:46;98746.34;;;-144.06;59.60
11017;BME280;54687;50.800;6.772;2024-02-15T09:27:13;98750.56;;;-144.06;59.23
11017;BME280;54687;50.800;6.772;2024-02-15T09:29:39;98750.56;;;-144.06;58.90
11017;BME280;54687;50.800;6.772;2024-02-15T09:32:06;98712.44;;;-144.06;58.74
11017;BME280;54687;50.800;6.772;2024-02-15T09:34:35;98720.91;;;-144.06;58.61
11017;BME280;54687;50.800;6.772;2024-02-15T09:37:02;98551.38;;;-144.06;58.30
11017;BME280;54687;50.800;6.772;2024-02-15T09:39:28;98695.47;;;-144.06;58.17
11017;BME280;54687;50.800;6.772;2024-02-15T09:41:55;98678.53;;;-144.06;58.01
11017;BME280;54687;50.800;6.772;2024-02-15T09:44:24;98665.81;;;-144.06;57.62
11017;BME280;54687;50.800;6.772;2024-02-15T09:47:02;98670.03;;;-144.06;57.27
11017;BME280;54687;50.800;6.772;2024-02-15T09:49:37;98648.84;;;-144.06;56.99
11017;BME280;54687;50.800;6.772;2024-02-15T09:52:06;98659.44;;;-144.06;57.19
11017;BME280;54687;50.800;6.772;2024-02-15T09:54:39;98672.16;;;-144.06;57.20
11017;BME280;54687;50.800;6.772;2024-02-15T09:57:07;98614.94;;;-144.06;56.88
11017;BME280;54687;50.800;6.772;2024-02-15T09:59:34;98640.38;;;-144.06;56.46
11017;BME280;54687;50.800;6.772;2024-02-15T10:02:01;98629.78;;;-144.06;56.52
11017;BME280;54687;50.800;6.772;2024-02-15T10:04:28;98593.75;;;-144.06;56.59
11017;BME280;54687;50.800;6.772;2024-02-15T10:06:56;98593.75;;;-144.06;56.31
11017;BME280;54687;50.800;6.772;2024-02-15T10:09:25;98574.69;;;-144.06;56.36
11017;BME280;54687;50.800;6.772;2024-02-15T10:11:54;98570.44;;;-144.06;55.65
11017;BME280;54687;50.800;6.772;2024-02-15T10:14:22;98568.31;;;-144.06;55.94
11017;BME280;54687;50.800;6.772;2024-02-15T10:16:48;98352.16;;;-144.06;55.88
11017;BME280;54687;50.800;6.772;2024-02-15T10:19:15;98525.94;;;-144.06;55.84
11017;BME280;54687;50.800;6.772;2024-02-15T10:21:42;98487.78;;;-144.06;55.65
11017;BME280;54687;50.800;6.772;2024-02-15T10:24:11;98502.63;;;-144.06;55.65
11017;BME280;54687;50.800;6.772;2024-02-15T10:26:37;98547.13;;;-144.06;55.55
11017;BME280;54687;50.800;6.772;2024-02-15T10:29:05;98462.38;;;-144.06;55.55
11017;BME280;54687;50.800;6.772;2024-02-15T10:31:34;98458.13;;;-144.06;55.40
11017;BME280;54687;50.800;6.772;2024-02-15T10:34:05;98475.06;;;-144.06;55.58
11017;BME280;54687;50.800;6.772;2024-02-15T10:36:32;98441.16;;;-144.06;55.60
11017;BME280;54687;50.800;6.772;2024-02-15T10:39:13;98453.88;;;-144.06;55.25
11017;BME280;54687;50.800;6.772;2024-02-15T10:41:43;98394.56;;;-144.06;54.65
11017;BME280;54687;50.800;6.772;2024-02-15T10:44:13;98443.28;;;-144.06;54.94
11017;BME280;54687;50.800;6.772;2024-02-15T10:46:42;98390.31;;;-144.06;53.93
11017;BME280;54687;50.800;6.772;2024-02-15T10:49:09;98373.34;;;-144.06;53.89
11017;BME280;54687;50.800;6.772;2024-02-15T10:51:38;98356.41;;;-144.06;53.69
11017;BME280;54687;50.800;6.772;2024-02-15T10:54:13;98352.16;;;-144.06;52.83
11017;BME280;54687;50.800;6.772;2024-02-15T10:56:43;98324.63;;;-144.06;52.79
11017;BME280;54687;50.800;6.772;2024-02-15T10:59:16;98352.16;;;-144.06;51.71
11017;BME280;54687;50.800;6.772;2024-02-15T11:01:45;98360.66;;;-144.06;51.78
11017;BME280;54687;50.800;6.772;2024-02-15T11:04:14;98367.00;;;-144.06;51.60
11017;BME280;54687;50.800;6.772;2024-02-15T11:06:43;98314.03;;;-144.06;51.59
11017;BME280;54687;50.800;6.772;2024-02-15T11:09:12;98305.56;;;-144.06;51.82
11017;BME280;54687;50.800;6.772;2024-02-15T11:11:41;98297.06;;;-144.06;51.68
11017;BME280;54687;50.800;6.772;2024-02-15T11:14:30;98284.34;;;-144.06;51.16
11017;BME280;54687;50.800;6.772;2024-02-15T11:16:58;98877.75;;;-144.06;50.89
11017;BME280;54687;50.800;6.772;2024-02-15T11:19:43;98318.25;;;-144.06;50.83
11017;BME280;54687;50.800;6.772;2024-02-15T11:22:14;98307.66;;;-144.06;50.84
11017;BME280;54687;50.800;6.772;2024-02-15T11:24:50;98250.44;;;-144.06;50.16
11017;BME280;54687;50.800;6.772;2024-02-15T11:27:24;98246.22;;;-144.06;50.29
11017;BME280;54687;50.800;6.772;2024-02-15T11:29:53;98261.06;;;-144.06;49.60
11017;BME280;54687;50.800;6.772;2024-02-15T11:32:43;98229.25;;;-144.06;48.86
11017;BME280;54687;50.800;6.772;2024-02-15T11:35:13;98233.50;;;-144.06;48.17
11017;BME280;54687;50.800;6.772;2024-02-15T11:38:01;98203.84;;;-144.06;47.67
11017;BME280;54687;50.800;6.772;2024-02-15T11:41:01;98174.16;;;-144.06;47.43
11017;BME280;54687;50.800;6.772;2024-02-15T11:43:53;98002.53;;;-144.06;48.07
11017;BME280;54687;50.800;6.772;2024-02-15T11:46:24;98100.00;;;-144.06;48.18
11017;BME280;54687;50.800;6.772;2024-02-15T11:48:54;98174.16;;;-144.06;48.45
11017;BME280;54687;50.800;6.772;2024-02-15T11:51:25;98146.63;;;-144.06;48.61
11017;BME280;54687;50.800;6.772;2024-02-15T11:54:00;98152.97;;;-144.06;48.27
11017;BME280;54687;50.800;6.772;2024-02-15T11:56:33;98178.41;;;-144.06;48.58
11017;BME280;54687;50.800;6.772;2024-02-15T11:59:17;98174.16;;;-144.06;48.12
11017;BME280;54687;50.800;6.772;2024-02-15T12:01:55;98195.34;;;-144.06;48.31
11017;BME280;54687;50.800;6.772;2024-02-15T12:04:41;98195.34;;;-144.06;48.46
11017;BME280;54687;50.800;6.772;2024-02-15T12:07:25;98174.16;;;-144.06;48.68
11017;BME280;54687;50.800;6.772;2024-02-15T12:10:15;98133.91;;;-144.06;48.42
11017;BME280;54687;50.800;6.772;2024-02-15T12:13:06;98227.16;;;-144.06;48.45
11017;BME280;54687;50.800;6.772;2024-02-15T12:15:57;98157.22;;;-144.06;48.12
11017;BME280;54687;50.800;6.772;2024-02-15T12:18:48;98146.63;;;-144.06;48.35
11017;BME280;54687;50.800;6.772;2024-02-15T12:21:20;98199.59;;;-144.06;48.63
11017;BME280;54687;50.800;6.772;2024-02-15T12:23:49;98174.16;;;-144.06;48.37
11017;BME280;54687;50.800;6.772;2024-02-15T12:26:18;98131.78;;;-144.06;48.34
11017;BME280;54687;50.800;6.772;2024-02-15T12:28:50;98165.69;;;-144.06;47.95
11017;BME280;54687;50.800;6.772;2024-02-15T12:31:20;98199.59;;;-144.06;48.04
11017;BME280;54687;50.800;6.772;2024-02-15T12:33:59;98125.44;;;-144.06;47.96
11017;BME280;54687;50.800;6.772;2024-02-15T12:36:26;98131.78;;;-144.06;47.88
11017;BME280;54687;50.800;6.772;2024-02-15T12:38:59;98167.81;;;-144.06;47.50
11017;BME280;54687;50.800;6.772;2024-02-15T12:41:25;98203.84;;;-144.06;47.71
11017;BME280;54687;50.800;6.772;2024-02-15T12:43:53;98191.13;;;-144.06;47.33
11017;BME280;54687;50.800;6.772;2024-02-15T12:46:22;98178.41;;;-144.06;47.07
11017;BME280;54687;50.800;6.772;2024-02-15T12:48:49;98167.81;;;-144.06;47.11
11017;BME280;54687;50.800;6.772;2024-02-15T12:51:18;98220.78;;;-144.06;47.24